Time;durP1;ratioP1;P1;durP2;ratioP2;P2;SDS_P1;SDS_P2;PMS_P1;PMS_P2;Temp;Humidity;BMP_temperature;BMP_pressure;BME280_temperature;BME280_humidity;BME280_pressure;Samples;Min_cycle;Max_cycle;Signal;HPM_P1;HPM_P2
2023/02/27 00:00:13;;;;;;;9.80;7.10;;;;;;;1.75;76.63;99861.30;105918;1256;71977;-74
2023/02/27 00:02:46;;;;;;;9.90;7.60;;;;;;;1.65;76.68;99858.40;106422;1251;69435;-74
2023/02/27 00:05:17;;;;;;;11.90;7.70;;;;;;;1.57;76.31;99861.23;107815;1256;73625;-73
2023/02/27 00:07:45;;;;;;;9.70;7.30;;;;;;;1.49;76.34;99860.23;108453;1251;59637;-73
2023/02/27 00:10:15;;;;;;;10.20;6.50;;;;;;;1.43;76.42;99867.27;107699;1255;59600;-72
2023/02/27 00:12:44;;;;;;;8.60;6.20;;;;;;;1.46;75.50;99875.06;108011;1251;72897;-74
2023/02/27 00:15:15;;;;;;;7.80;6.30;;;;;;;1.46;74.91;99875.44;107708;1253;68552;-71
2023/02/27 00:17:45;;;;;;;7.80;5.70;;;;;;;1.38;74.99;99875.81;107848;1251;72789;-74
2023/02/27 00:20:15;;;;;;;7.40;5.10;;;;;;;1.31;75.10;99871.72;107931;1251;59755;-72
2023/02/27 00:22:44;;;;;;;7.90;6.40;;;;;;;1.26;74.56;99879.54;107911;1251;59416;-72
2023/02/27 00:25:23;;;;;;;8.40;6.30;;;;;;;1.20;74.58;99882.96;107927;1251;72855;-71
2023/02/27 00:27:55;;;;;;;8.30;6.40;;;;;;;1.16;74.41;99884.08;108386;1251;68851;-73
2023/02/27 00:30:25;;;;;;;7.80;6.40;;;;;;;1.12;74.10;99884.91;108531;1253;74749;-71
2023/02/27 00:32:53;;;;;;;8.10;6.30;;;;;;;1.06;74.06;99887.05;109063;1251;58600;-75
2023/02/27 00:35:22;;;;;;;8.20;6.20;;;;;;;1.03;74.22;99883.96;108714;1251;61078;-74
2023/02/27 00:37:56;;;;;;;6.70;5.10;;;;;;;1.11;73.92;99893.46;108560;1251;73936;-74
2023/02/27 00:40:24;;;;;;;9.00;6.60;;;;;;;1.20;73.92;99899.52;108423;1251;71491;-73
2023/02/27 00:42:52;;;;;;;10.20;6.70;;;;;;;1.17;73.55;99901.95;109249;1251;70987;-73
2023/02/27 00:45:21;;;;;;;8.30;6.90;;;;;;;1.10;73.50;99905.25;109241;1252;60476;-72
2023/02/27 00:47:49;;;;;;;8.80;6.90;;;;;;;1.02;73.52;99908.23;109326;1251;59335;-73
2023/02/27 00:50:17;;;;;;;7.90;6.50;;;;;;;0.94;73.69;99916.08;109469;1251;73051;-74
2023/02/27 00:52:45;;;;;;;7.60;6.10;;;;;;;0.90;73.93;99920.21;109246;1251;70327;-74
2023/02/27 00:55:14;;;;;;;8.10;6.10;;;;;;;0.88;74.00;99924.34;109262;1251;72489;-73
2023/02/27 00:57:43;;;;;;;8.60;6.50;;;;;;;0.86;73.94;99929.02;109411;1251;59511;-74
2023/02/27 01:00:13;;;;;;;12.40;8.90;;;;;;;0.83;73.82;99934.42;109571;1250;59328;-75
2023/02/27 01:02:45;;;;;;;10.90;8.80;;;;;;;0.90;73.79;99937.77;109698;1250;71859;-75
2023/02/27 01:05:14;;;;;;;9.00;7.20;;;;;;;0.96;73.48;99940.15;109489;1251;68895;-78
2023/02/27 01:07:42;;;;;;;8.00;5.90;;;;;;;0.94;73.28;99941.70;108813;1251;70641;-73
2023/02/27 01:10:10;;;;;;;7.40;6.00;;;;;;;0.87;73.20;99940.80;108213;1251;59222;-74
2023/02/27 01:12:41;;;;;;;8.60;7.30;;;;;;;0.80;73.03;99949.42;108712;1250;60740;-73
2023/02/27 01:15:10;;;;;;;18.90;16.90;;;;;;;0.72;73.01;99951.02;109124;1251;73055;-74
2023/02/27 01:17:40;;;;;;;22.00;18.60;;;;;;;0.68;73.10;99954.22;108872;1251;69899;-73
2023/02/27 01:20:12;;;;;;;13.20;10.60;;;;;;;0.64;73.34;99955.52;108926;1250;70401;-73
2023/02/27 01:22:40;;;;;;;11.60;9.30;;;;;;;0.63;73.22;99959.26;109734;1250;58398;-77
2023/02/27 01:25:13;;;;;;;10.60;8.20;;;;;;;0.62;73.32;99963.02;109692;1250;59971;-75
2023/02/27 01:27:43;;;;;;;9.50;7.50;;;;;;;0.64;73.21;99964.45;109515;1250;72483;-75
2023/02/27 01:30:13;;;;;;;9.60;7.40;;;;;;;0.77;73.20;99966.40;108975;1251;68603;-74
2023/02/27 01:32:45;;;;;;;14.00;11.80;;;;;;;0.80;73.34;99966.39;107904;1251;72629;-75
2023/02/27 01:35:16;;;;;;;15.40;12.10;;;;;;;0.80;73.20;99963.25;106431;1251;60446;-72
2023/02/27 01:37:45;;;;;;;12.70;10.00;;;;;;;0.80;73.25;99964.14;106502;1251;60464;-75
2023/02/27 01:40:13;;;;;;;14.70;9.50;;;;;;;0.76;73.14;99962.23;106231;1256;75069;-71
2023/02/27 01:42:42;;;;;;;13.00;9.50;;;;;;;0.71;73.18;99956.48;106616;1253;70216;-76
2023/02/27 01:45:11;;;;;;;12.30;7.80;;;;;;;0.66;73.27;99960.62;107435;1250;71812;-75
2023/02/27 01:47:42;;;;;;;12.10;8.50;;;;;;;0.61;73.15;99959.95;106878;1249;60501;-69
2023/02/27 01:50:11;;;;;;;11.60;8.60;;;;;;;0.54;73.27;99963.34;107411;1251;60276;-69
2023/02/27 01:52:41;;;;;;;11.30;8.80;;;;;;;0.49;73.33;99963.12;105958;1256;72839;-69
2023/02/27 01:55:11;;;;;;;9.80;7.40;;;;;;;0.41;73.44;99960.67;106208;1251;70368;-71
2023/02/27 01:57:42;;;;;;;10.50;7.50;;;;;;;0.49;73.46;99962.21;106309;1251;72516;-73
2023/02/27 02:00:12;;;;;;;11.60;8.70;;;;;;;0.55;73.56;99964.33;106206;1251;60483;-78
2023/02/27 02:02:49;;;;;;;10.70;8.10;;;;;;;0.50;73.73;99967.98;106737;1251;60457;-78
2023/02/27 02:05:18;;;;;;;10.80;8.20;;;;;;;0.43;73.80;99965.96;106711;1251;74178;-78
2023/02/27 02:07:50;;;;;;;12.60;8.90;;;;;;;0.38;73.87;99965.41;106722;1251;70422;-78
2023/02/27 02:10:20;;;;;;;10.30;8.50;;;;;;;0.34;73.93;99963.21;106696;1257;72050;-76
2023/02/27 02:12:48;;;;;;;10.20;8.20;;;;;;;0.30;74.14;99965.04;106690;1250;60544;-75
2023/02/27 02:15:16;;;;;;;10.40;8.40;;;;;;;0.24;74.04;99969.58;106504;1252;61593;-77
2023/02/27 02:18:19;;;;;;;12.90;9.40;;;;;;;0.18;74.13;99973.11;106542;1250;74052;-77
2023/02/27 02:21:10;;;;;;;10.30;8.70;;;;;;;0.10;74.20;99979.53;106786;1250;71477;-80
2023/02/27 02:23:46;;;;;;;10.70;8.00;;;;;;;0.12;74.09;99981.48;106836;1253;73874;-75
2023/02/27 02:27:05;;;;;;;9.80;7.90;;;;;;;0.20;74.25;99978.01;106723;1250;60529;-75
2023/02/27 02:30:12;;;;;;;10.10;7.80;;;;;;;0.20;74.19;99981.34;106384;1250;61458;-71
2023/02/27 02:33:15;;;;;;;10.50;7.80;;;;;;;0.13;74.29;99980.34;106510;1250;74061;-72
2023/02/27 02:35:55;;;;;;;11.00;8.50;;;;;;;0.07;74.55;99985.60;106536;1250;71297;-72
2023/02/27 02:38:42;;;;;;;17.60;12.50;;;;;;;0.04;74.51;99991.71;106396;1251;73401;-71
2023/02/27 02:41:20;;;;;;;15.20;11.30;;;;;;;-0.01;74.47;99997.47;106416;1250;60816;-71
2023/02/27 02:44:05;;;;;;;15.30;11.80;;;;;;;-0.07;74.70;99997.82;106540;1256;60391;-73
2023/02/27 02:46:47;;;;;;;14.70;10.00;;;;;;;-0.11;74.93;99998.90;106746;1250;73800;-72
2023/02/27 02:49:42;;;;;;;15.80;9.90;;;;;;;-0.15;74.83;100005.94;107179;1253;71556;-74
2023/02/27 02:52:17;;;;;;;12.90;8.90;;;;;;;-0.06;74.69;100009.25;106977;1250;74903;-70
2023/02/27 02:55:08;;;;;;;13.70;9.30;;;;;;;-0.06;74.69;100013.96;106328;1251;60432;-73
2023/02/27 02:57:43;;;;;;;16.00;11.10;;;;;;;-0.11;75.11;100011.98;106736;1251;60555;-71
2023/02/27 03:00:31;;;;;;;16.20;11.50;;;;;;;-0.13;75.21;100018.20;106327;1257;74058;-74
2023/02/27 03:03:07;;;;;;;17.60;11.80;;;;;;;-0.17;75.33;100018.27;106446;1250;70547;-72
2023/02/27 03:05:41;;;;;;;17.10;11.70;;;;;;;-0.22;75.61;100020.46;106705;1249;73720;-73
2023/02/27 03:08:15;;;;;;;15.80;11.00;;;;;;;-0.24;75.85;100020.91;106280;1253;60553;-73
2023/02/27 03:10:43;;;;;;;;;;;;;;;-0.25;75.95;100024.14;106518;1251;60431;-72
2023/02/27 03:13:19;;;;;;;21.20;10.60;;;;;;;-0.11;76.04;100028.55;106332;1250;74814;-73
2023/02/27 03:15:52;;;;;;;16.80;10.40;;;;;;;-0.01;75.82;100028.45;106244;1258;71026;-73
2023/02/27 03:18:27;;;;;;;16.40;10.20;;;;;;;-0.04;75.98;100033.27;107095;1252;73673;-72
2023/02/27 03:21:14;;;;;;;20.00;11.10;;;;;;;-0.04;76.33;100039.58;106581;1256;60406;-75
2023/02/27 03:23:43;;;;;;;22.80;12.00;;;;;;;-0.05;76.37;100041.35;106203;1257;60588;-70
2023/02/27 03:26:16;;;;;;;21.80;11.70;;;;;;;-0.06;76.38;100042.47;106295;1250;74711;-71
2023/02/27 03:28:53;;;;;;;15.90;10.60;;;;;;;-0.06;76.42;100041.61;106183;1251;69785;-70
2023/02/27 03:31:26;;;;;;;16.30;10.30;;;;;;;-0.06;76.30;100047.03;106323;1254;73906;-72
2023/02/27 03:34:00;;;;;;;14.20;8.90;;;;;;;-0.08;76.47;100053.27;106479;1254;61000;-68
2023/02/27 03:36:32;;;;;;;;;;;;;;;0.02;76.47;100049.14;106087;1250;61535;-69
2023/02/27 03:39:26;;;;;;;11.00;8.00;;;;;;;0.10;76.40;100052.66;105766;1256;74877;-67
2023/02/27 03:42:33;;;;;;;10.50;8.00;;;;;;;0.07;76.72;100053.17;105966;1251;71313;-68
2023/02/27 03:45:14;;;;;;;11.50;7.60;;;;;;;0.03;76.79;100057.95;105178;1264;73015;-69
2023/02/27 03:47:43;;;;;;;10.50;8.10;;;;;;;0.01;76.71;100062.14;105961;1250;60427;-68
2023/02/27 03:50:12;;;;;;;12.70;7.80;;;;;;;-0.03;76.58;100065.48;106031;1251;60515;-67
2023/02/27 03:52:41;;;;;;;11.10;8.30;;;;;;;-0.07;76.48;100066.94;106167;1254;74072;-67
2023/02/27 03:55:34;;;;;;;11.10;7.70;;;;;;;-0.09;76.22;100065.15;105942;1251;70402;-68
2023/02/27 03:58:03;;;;;;;10.30;7.30;;;;;;;0.02;75.88;100064.15;105925;1250;72557;-66
2023/02/27 04:00:31;;;;;;;11.00;7.90;;;;;;;0.04;75.68;100065.54;105897;1257;61010;-66
2023/02/27 04:03:00;;;;;;;13.00;8.50;;;;;;;-0.01;75.58;100062.89;105895;1251;60526;-65
2023/02/27 04:05:29;;;;;;;11.00;8.10;;;;;;;-0.05;75.46;100067.50;105881;1253;73943;-64
2023/02/27 04:08:29;;;;;;;8.90;7.30;;;;;;;-0.08;75.27;100074.46;105676;1251;71021;-64
2023/02/27 04:11:19;;;;;;;10.60;7.50;;;;;;;-0.11;74.96;100082.88;105749;1256;71814;-64
2023/02/27 04:14:10;;;;;;;11.60;8.30;;;;;;;-0.15;74.81;100086.37;105845;1250;60398;-65
2023/02/27 04:17:13;;;;;;;14.00;8.00;;;;;;;-0.18;74.92;100087.43;105910;1250;61234;-65
2023/02/27 04:20:09;;;;;;;11.00;7.60;;;;;;;-0.23;74.51;100089.98;105975;1250;74824;-66
2023/02/27 04:22:51;;;;;;;12.00;7.50;;;;;;;-0.13;74.42;100094.09;105955;1254;71200;-65
2023/02/27 04:25:49;;;;;;;15.30;7.80;;;;;;;-0.09;74.40;100100.31;106017;1251;73572;-67
2023/02/27 04:28:27;;;;;;;9.90;7.50;;;;;;;-0.12;74.51;100100.16;106032;1254;60422;-63
2023/02/27 04:31:17;;;;;;;12.10;8.70;;;;;;;-0.16;74.57;100106.67;106152;1250;60566;-63
2023/02/27 04:33:50;;;;;;;12.10;8.20;;;;;;;-0.23;74.37;100108.92;105987;1254;74432;-67
2023/02/27 04:36:22;;;;;;;;;;;;;;;-0.28;74.48;100119.17;106056;1250;70583;-66
2023/02/27 04:38:58;;;;;;;13.90;8.50;;;;;;;-0.36;74.47;100115.64;105952;1250;71645;-64
2023/02/27 04:41:29;;;;;;;14.00;9.20;;;;;;;-0.42;74.76;100117.58;105998;1250;60413;-66
2023/02/27 04:43:57;;;;;;;14.70;7.90;;;;;;;-0.44;74.90;100120.25;105778;1255;62330;-64
2023/02/27 04:46:26;;;;;;;12.20;7.90;;;;;;;-0.34;74.77;100121.79;105895;1254;73258;-65
2023/02/27 04:49:01;;;;;;;12.00;7.90;;;;;;;-0.24;74.88;100128.31;105732;1250;69666;-67
2023/02/27 04:51:37;;;;;;;12.60;8.10;;;;;;;-0.22;74.71;100131.36;105809;1253;71443;-66
2023/02/27 04:54:11;;;;;;;13.30;9.00;;;;;;;-0.22;74.61;100136.05;106105;1251;60778;-66
2023/02/27 04:56:42;;;;;;;14.10;9.50;;;;;;;-0.23;74.62;100142.20;105810;1250;60402;-67
2023/02/27 04:59:25;;;;;;;12.70;8.90;;;;;;;-0.24;74.66;100141.92;106056;1250;72023;-65
2023/02/27 05:02:00;;;;;;;14.90;9.20;;;;;;;-0.25;74.51;100141.48;105820;1252;70134;-64
2023/02/27 05:04:30;;;;;;;12.00;8.30;;;;;;;-0.28;74.40;100146.48;105833;1251;70870;-68
2023/02/27 05:06:59;;;;;;;16.50;9.20;;;;;;;-0.29;74.64;100149.89;105729;1250;61731;-70
2023/02/27 05:09:39;;;;;;;12.30;8.50;;;;;;;-0.20;74.45;100156.13;105694;1251;61582;-69
2023/02/27 05:12:19;;;;;;;14.80;9.60;;;;;;;-0.10;74.25;100167.25;105927;1253;74530;-71
2023/02/27 05:14:51;;;;;;;13.70;10.80;;;;;;;-0.12;74.23;100171.37;105890;1250;69996;-69
2023/02/27 05:17:22;;;;;;;15.50;10.40;;;;;;;-0.13;74.07;100171.25;105749;1258;72237;-69
2023/02/27 05:19:50;;;;;;;15.30;11.10;;;;;;;-0.13;74.04;100178.23;105974;1251;60643;-69
2023/02/27 05:22:50;;;;;;;14.50;11.00;;;;;;;-0.15;73.77;100187.02;105907;1254;60408;-69
2023/02/27 05:25:26;;;;;;;13.90;9.80;;;;;;;-0.19;73.41;100191.61;105807;1250;73704;-70
2023/02/27 05:28:18;;;;;;;12.60;9.60;;;;;;;-0.23;73.23;100195.31;105746;1251;71303;-69
2023/02/27 05:30:57;;;;;;;11.80;9.20;;;;;;;-0.27;73.13;100196.23;105798;1256;73521;-69
2023/02/27 05:33:29;;;;;;;13.40;10.10;;;;;;;-0.34;73.04;100202.17;105845;1255;60562;-68
2023/02/27 05:36:00;;;;;;;14.20;8.60;;;;;;;-0.36;73.17;100204.75;105930;1254;60534;-67
2023/02/27 05:38:38;;;;;;;11.90;8.30;;;;;;;-0.24;72.99;100205.80;105834;1250;75406;-65
2023/02/27 05:41:15;;;;;;;13.90;8.90;;;;;;;-0.13;72.85;100205.36;105750;1253;70569;-66
2023/02/27 05:43:54;;;;;;;13.00;9.40;;;;;;;-0.16;72.97;100203.80;105901;1250;73915;-64
2023/02/27 05:46:25;;;;;;;13.20;9.90;;;;;;;-0.18;72.85;100205.15;105945;1250;60402;-67
2023/02/27 05:48:56;;;;;;;14.60;10.30;;;;;;;-0.17;72.95;100206.64;105681;1256;61536;-69
2023/02/27 05:51:26;;;;;;;13.10;9.60;;;;;;;-0.16;72.79;100207.30;106068;1254;74078;-67
2023/02/27 05:54:07;;;;;;;14.20;10.90;;;;;;;-0.18;72.80;100209.16;106095;1251;70369;-66
2023/02/27 05:56:37;;;;;;;16.40;11.50;;;;;;;-0.20;72.81;100211.83;105926;1256;72271;-68
2023/02/27 05:59:31;;;;;;;19.30;12.10;;;;;;;-0.19;72.69;100218.95;105710;1251;60738;-71
2023/02/27 06:02:00;;;;;;;17.20;12.80;;;;;;;-0.19;72.71;100226.75;105791;1252;60531;-70
2023/02/27 06:04:32;;;;;;;14.50;11.00;;;;;;;-0.21;72.56;100229.11;106009;1257;73821;-69
2023/02/27 06:07:03;;;;;;;14.70;10.70;;;;;;;-0.22;72.71;100229.33;105633;1250;71261;-71
2023/02/27 06:09:34;;;;;;;14.50;8.50;;;;;;;-0.11;72.57;100235.54;105953;1250;73660;-71
2023/02/27 06:12:03;;;;;;;11.40;8.70;;;;;;;-0.05;72.29;100231.34;106214;1250;60796;-70
2023/02/27 06:14:31;;;;;;;12.90;9.30;;;;;;;-0.10;72.33;100235.48;106522;1255;60389;-69
2023/02/27 06:17:00;;;;;;;13.20;10.00;;;;;;;-0.14;72.32;100244.79;106137;1254;74350;-70
2023/02/27 06:19:29;;;;;;;13.00;10.10;;;;;;;-0.15;72.68;100245.55;106114;1253;69914;-69
2023/02/27 06:21:57;;;;;;;19.60;13.50;;;;;;;-0.16;72.42;100243.15;106132;1251;71763;-71
2023/02/27 06:24:26;;;;;;;18.40;13.30;;;;;;;-0.18;72.59;100237.52;106200;1257;60595;-69
2023/02/27 06:26:54;;;;;;;26.20;12.30;;;;;;;-0.21;72.54;100232.08;106155;1256;60438;-68
2023/02/27 06:29:23;;;;;;;14.30;10.70;;;;;;;-0.22;72.51;100233.52;106133;1250;73482;-71
2023/02/27 06:31:51;;;;;;;14.00;10.00;;;;;;;-0.21;72.65;100233.85;105998;1251;71062;-69
2023/02/27 06:34:21;;;;;;;14.90;9.80;;;;;;;-0.21;72.49;100235.04;106035;1251;73327;-70
2023/02/27 06:36:50;;;;;;;14.20;9.30;;;;;;;-0.19;72.42;100238.77;106620;1251;62220;-70
2023/02/27 06:39:18;;;;;;;10.80;8.00;;;;;;;-0.06;72.42;100243.29;106281;1252;60287;-68
2023/02/27 06:41:47;;;;;;;14.30;9.20;;;;;;;0.07;72.14;100252.81;106351;1251;74986;-71
2023/02/27 06:44:16;;;;;;;14.20;8.90;;;;;;;0.09;72.28;100249.89;106239;1257;71452;-70
2023/02/27 06:46:46;;;;;;;12.00;8.60;;;;;;;0.09;72.02;100250.41;106213;1250;72634;-71
2023/02/27 06:49:15;;;;;;;11.90;9.10;;;;;;;0.08;71.87;100242.79;106743;1255;60494;-68
2023/02/27 06:51:43;;;;;;;13.00;9.20;;;;;;;0.08;71.98;100244.58;106452;1251;61707;-69
2023/02/27 06:54:12;;;;;;;14.60;9.40;;;;;;;0.09;71.76;100253.58;106854;1251;74571;-70
2023/02/27 06:56:44;;;;;;;13.70;9.70;;;;;;;0.08;71.76;100253.25;106619;1256;70550;-71
2023/02/27 06:59:13;;;;;;;14.40;10.40;;;;;;;0.09;71.80;100260.18;106622;1250;72668;-67
2023/02/27 07:01:41;;;;;;;15.20;10.30;;;;;;;0.11;71.76;100261.95;106686;1251;60421;-69
2023/02/27 07:04:13;;;;;;;12.00;9.20;;;;;;;0.11;71.63;100261.95;108488;1250;60353;-74
2023/02/27 07:06:44;;;;;;;15.00;9.30;;;;;;;0.12;71.55;100260.69;108970;1251;73630;-75
2023/02/27 07:09:34;;;;;;;12.50;8.50;;;;;;;0.24;71.38;100265.59;107891;1250;70353;-71
2023/02/27 07:12:04;;;;;;;12.80;8.90;;;;;;;0.37;71.09;100267.95;107563;1256;70504;-71
2023/02/27 07:14:32;;;;;;;14.80;9.40;;;;;;;0.37;71.07;100269.35;108913;1250;60775;-73
2023/02/27 07:17:04;;;;;;;12.70;8.90;;;;;;;0.35;71.21;100276.61;109510;1250;58177;-75
2023/02/27 07:19:38;;;;;;;12.50;8.80;;;;;;;0.36;71.05;100278.30;109270;1250;72038;-74
2023/02/27 07:22:08;;;;;;;12.10;9.40;;;;;;;0.35;70.94;100281.85;109152;1250;69080;-74
2023/02/27 07:24:38;;;;;;;15.20;10.40;;;;;;;0.33;71.14;100280.92;109129;1252;71282;-73
2023/02/27 07:27:08;;;;;;;14.70;10.30;;;;;;;0.36;70.93;100285.98;109163;1254;59019;-72
2023/02/27 07:29:39;;;;;;;14.90;9.10;;;;;;;0.40;71.07;100284.70;109356;1251;60316;-75
2023/02/27 07:32:08;;;;;;;14.20;9.00;;;;;;;0.44;71.16;100291.23;109534;1252;73547;-71
2023/02/27 07:34:37;;;;;;;12.80;9.00;;;;;;;0.47;70.98;100291.60;109153;1250;68433;-73
2023/02/27 07:37:08;;;;;;;14.60;9.50;;;;;;;0.49;70.87;100287.11;109190;1251;71681;-72
2023/02/27 07:39:37;;;;;;;15.80;8.20;;;;;;;0.51;70.65;100284.89;108984;1251;60403;-73
2023/02/27 07:42:08;;;;;;;10.80;7.30;;;;;;;0.65;70.47;100288.41;109422;1250;59947;-74
2023/02/27 07:44:40;;;;;;;11.90;7.90;;;;;;;0.76;70.26;100287.10;109141;1257;73888;-74
2023/02/27 07:47:22;;;;;;;11.60;8.90;;;;;;;0.79;70.46;100284.65;109255;1251;69976;-73
2023/02/27 07:49:52;;;;;;;;;;;;;;;0.83;70.28;100281.62;109626;1250;73042;-73
2023/02/27 07:52:21;;;;;;;11.40;8.00;;;;;;;0.86;70.24;100285.27;108821;1250;59234;-74
2023/02/27 07:54:52;;;;;;;9.60;8.00;;;;;;;0.88;70.17;100293.02;108544;1251;60296;-73
2023/02/27 07:57:20;;;;;;;9.90;7.80;;;;;;;0.86;70.30;100290.66;108953;1250;74619;-71
2023/02/27 07:59:50;;;;;;;13.50;9.00;;;;;;;0.85;70.06;100290.91;107704;1259;70876;-76
2023/02/27 08:02:18;;;;;;;11.10;8.00;;;;;;;0.84;70.17;100301.24;106451;1250;72585;-71
2023/02/27 08:04:48;;;;;;;12.60;8.50;;;;;;;0.81;69.98;100297.41;105891;1250;60443;-70
2023/02/27 08:07:17;;;;;;;10.60;7.70;;;;;;;0.73;69.81;100299.66;105833;1252;60773;-72
2023/02/27 08:09:49;;;;;;;14.20;8.50;;;;;;;0.61;69.89;100306.12;105734;1258;72687;-72
2023/02/27 08:12:18;;;;;;;11.60;7.50;;;;;;;0.56;70.23;100303.06;105920;1253;70981;-69
2023/02/27 08:14:47;;;;;;;14.20;9.20;;;;;;;0.63;70.19;100305.45;106047;1257;72773;-72
2023/02/27 08:17:17;;;;;;;11.50;8.20;;;;;;;0.73;70.08;100307.84;106123;1254;60406;-74
2023/02/27 08:19:47;;;;;;;15.10;8.40;;;;;;;0.73;70.05;100316.23;105871;1251;60441;-73
2023/02/27 08:22:16;;;;;;;17.30;10.20;;;;;;;0.69;70.09;100315.58;106003;1252;73434;-71
2023/02/27 08:24:44;;;;;;;20.10;13.30;;;;;;;0.70;70.07;100320.55;106485;1253;69662;-73
2023/02/27 08:27:13;;;;;;;13.80;10.50;;;;;;;0.73;69.94;100322.16;106407;1253;72245;-72
2023/02/27 08:29:44;;;;;;;15.40;9.60;;;;;;;0.72;69.65;100319.58;105917;1253;60509;-74
2023/02/27 08:32:12;;;;;;;13.50;8.30;;;;;;;0.70;69.66;100321.43;105979;1252;60824;-75
2023/02/27 08:34:41;;;;;;;11.40;7.90;;;;;;;0.70;69.57;100326.50;106264;1255;75085;-75
2023/02/27 08:37:09;;;;;;;11.30;7.80;;;;;;;0.70;69.53;100329.31;105955;1253;71004;-75
2023/02/27 08:39:39;;;;;;;10.40;8.40;;;;;;;0.69;69.56;100335.46;106260;1256;73861;-76
2023/02/27 08:42:08;;;;;;;8.50;6.40;;;;;;;0.69;69.48;100323.23;106308;1253;60405;-76
2023/02/27 08:44:36;;;;;;;9.10;6.50;;;;;;;0.67;69.03;100327.41;106376;1253;62332;-75
2023/02/27 08:47:05;;;;;;;14.00;6.20;;;;;;;0.61;68.97;100332.45;106358;1253;73007;-75
2023/02/27 08:49:33;;;;;;;9.10;6.20;;;;;;;0.57;68.84;100332.85;106487;1253;70416;-73
2023/02/27 08:52:04;;;;;;;10.50;7.20;;;;;;;0.54;68.87;100331.46;106483;1259;72837;-76
2023/02/27 08:54:33;;;;;;;8.80;5.60;;;;;;;0.57;68.91;100337.70;108833;1251;60827;-76
2023/02/27 08:57:02;;;;;;;9.00;5.90;;;;;;;0.69;68.92;100334.23;108676;1252;59070;-78
2023/02/27 08:59:31;;;;;;;8.80;5.80;;;;;;;0.77;68.78;100337.23;107991;1253;72051;-75
2023/02/27 09:02:00;;;;;;;7.60;5.80;;;;;;;0.82;68.77;100338.68;106307;1253;70185;-74
2023/02/27 09:04:28;;;;;;;7.40;5.70;;;;;;;0.89;68.62;100341.77;106292;1253;73499;-74
2023/02/27 09:06:57;;;;;;;8.00;5.90;;;;;;;0.97;68.61;100340.91;106024;1253;60752;-76
2023/02/27 09:09:26;;;;;;;7.50;6.30;;;;;;;1.09;68.57;100341.24;106583;1253;60400;-75
2023/02/27 09:11:55;;;;;;;8.70;6.70;;;;;;;1.22;68.08;100341.20;106423;1257;74795;-74
2023/02/27 09:14:24;;;;;;;9.80;7.10;;;;;;;1.33;68.11;100344.53;106558;1250;70670;-78
2023/02/27 09:16:54;;;;;;;8.10;5.80;;;;;;;1.52;67.91;100340.73;106520;1259;72958;-78
2023/02/27 09:19:23;;;;;;;7.20;4.30;;;;;;;1.69;67.20;100333.02;106589;1251;60519;-74
2023/02/27 09:21:51;;;;;;;7.80;5.60;;;;;;;1.86;66.67;100334.74;106566;1250;60367;-75
2023/02/27 09:24:26;;;;;;;6.30;5.30;;;;;;;2.03;66.60;100330.02;106327;1256;195701;-72
2023/02/27 09:28:14;;;;;;;7.40;5.60;;;;;;;2.28;65.99;100328.59;102824;1295;599677;-77
2023/02/27 09:30:44;;;;;;;6.30;5.20;;;;;;;2.37;65.59;100326.76;105469;1269;59124;-76
2023/02/27 09:33:14;;;;;;;9.30;6.70;;;;;;;2.44;65.36;100328.74;105436;1268;60284;-76
2023/02/27 09:35:46;;;;;;;11.40;7.30;;;;;;;2.50;64.73;100330.05;105662;1271;72151;-75
2023/02/27 09:38:15;;;;;;;9.10;6.40;;;;;;;2.55;64.49;100331.89;105461;1269;70336;-75
2023/02/27 09:40:48;;;;;;;9.00;6.70;;;;;;;2.51;64.31;100333.67;105273;1269;172500;-75
2023/02/27 09:43:22;;;;;;;8.10;6.10;;;;;;;2.50;64.15;100335.65;106194;1256;59291;-76
2023/02/27 09:45:53;;;;;;;8.10;6.00;;;;;;;2.47;63.98;100336.92;106173;1258;61340;-76
2023/02/27 09:48:56;;;;;;;8.00;5.60;;;;;;;2.47;64.13;100341.66;106712;1256;71355;-77
2023/02/27 09:51:24;;;;;;;13.30;9.00;;;;;;;2.49;63.86;100343.98;106286;1256;73222;-74
2023/02/27 09:53:59;;;;;;;14.60;9.60;;;;;;;2.49;63.57;100347.64;108318;1256;72297;-76
2023/02/27 09:56:30;;;;;;;10.40;8.10;;;;;;;2.50;63.51;100348.30;107909;1256;61026;-74
2023/02/27 09:59:37;;;;;;;10.70;6.60;;;;;;;2.51;63.51;100349.96;106607;1258;60101;-75
2023/02/27 10:02:45;;;;;;;9.40;6.30;;;;;;;2.49;63.16;100343.09;106341;1254;73133;-73
2023/02/27 10:05:32;;;;;;;7.90;5.60;;;;;;;2.52;63.61;100350.55;105727;1259;68348;-77
2023/02/27 10:08:16;;;;;;;8.00;6.30;;;;;;;2.55;63.53;100348.09;106017;1254;73673;-77
2023/02/27 10:10:47;;;;;;;;;;;;;;;2.62;63.65;100346.27;106031;1256;59842;-77
2023/02/27 10:13:31;;;;;;;6.80;5.30;;;;;;;2.68;63.54;100350.94;106362;1257;59645;-76
2023/02/27 10:15:59;;;;;;;7.40;5.10;;;;;;;2.74;63.47;100354.74;106292;1254;72191;-78
2023/02/27 10:18:29;;;;;;;6.70;4.70;;;;;;;2.76;63.20;100353.73;106448;1256;70640;-76
2023/02/27 10:21:11;;;;;;;8.70;5.70;;;;;;;2.73;62.80;100358.65;106428;1258;74056;-77
2023/02/27 10:24:14;;;;;;;6.60;5.40;;;;;;;2.63;62.87;100360.02;106192;1256;61599;-76
2023/02/27 10:26:42;;;;;;;8.00;5.70;;;;;;;2.59;63.05;100367.83;106639;1256;60578;-80
2023/02/27 10:29:40;;;;;;;8.60;5.50;;;;;;;2.54;63.25;100367.42;106468;1256;72051;-78
2023/02/27 10:32:20;;;;;;;5.90;4.10;;;;;;;2.50;63.12;100369.23;106255;1254;71516;-77
2023/02/27 10:35:04;;;;;;;6.10;4.40;;;;;;;2.49;63.31;100373.35;106430;1254;73626;-76
2023/02/27 10:37:33;;;;;;;7.30;5.10;;;;;;;2.48;63.35;100372.02;106171;1254;60819;-77
2023/02/27 10:40:05;;;;;;;6.10;5.40;;;;;;;2.44;63.17;100377.18;106235;1255;59547;-74
2023/02/27 10:42:36;;;;;;;6.10;4.80;;;;;;;2.39;63.40;100375.42;105992;1256;74202;-76
2023/02/27 10:45:14;;;;;;;4.60;4.00;;;;;;;2.37;63.35;100377.98;106280;1258;71438;-76
2023/02/27 10:47:44;;;;;;;6.50;4.70;;;;;;;2.35;63.51;100377.23;106342;1254;72619;-76
2023/02/27 10:50:40;;;;;;;4.90;4.00;;;;;;;2.34;63.52;100376.61;106435;1259;59579;-74
2023/02/27 10:53:22;;;;;;;4.30;3.90;;;;;;;2.35;63.85;100381.95;107264;1255;60770;-75
2023/02/27 10:56:07;;;;;;;6.10;4.40;;;;;;;2.41;63.86;100383.50;108167;1256;72549;-74
2023/02/27 10:58:36;;;;;;;5.10;4.30;;;;;;;2.47;63.72;100380.11;107473;1254;69345;-76
2023/02/27 11:01:07;;;;;;;5.40;4.50;;;;;;;2.51;63.50;100376.87;106275;1261;72702;-76
2023/02/27 11:03:38;;;;;;;6.00;4.70;;;;;;;2.55;63.24;100371.75;106337;1260;59645;-75
2023/02/27 11:06:13;;;;;;;7.20;4.80;;;;;;;2.62;63.50;100367.97;106317;1256;60586;-73
2023/02/27 11:08:42;;;;;;;5.20;4.70;;;;;;;2.73;63.37;100367.52;106274;1260;73316;-73
2023/02/27 11:11:13;;;;;;;7.60;5.60;;;;;;;2.84;63.11;100366.31;105985;1256;68682;-75
2023/02/27 11:13:46;;;;;;;7.50;5.50;;;;;;;2.88;62.87;100366.05;106462;1255;72285;-74
2023/02/27 11:16:21;;;;;;;6.20;5.50;;;;;;;2.87;62.47;100373.12;106544;1255;60423;-74
2023/02/27 11:18:56;;;;;;;6.30;5.60;;;;;;;2.79;62.58;100378.56;106052;1256;60421;-73
2023/02/27 11:21:26;;;;;;;9.70;7.60;;;;;;;2.75;62.52;100377.92;106237;1254;73980;-73
2023/02/27 11:23:57;;;;;;;9.70;8.10;;;;;;;2.70;62.40;100373.52;106377;1258;69740;-73
2023/02/27 11:26:37;;;;;;;10.00;7.50;;;;;;;2.64;62.77;100379.22;106096;1260;73639;-73
2023/02/27 11:29:10;;;;;;;8.40;5.90;;;;;;;2.60;62.67;100380.30;105867;1256;59653;-73
2023/02/27 11:31:57;;;;;;;7.60;5.80;;;;;;;2.54;62.42;100378.95;106211;1256;60806;-76
2023/02/27 11:34:26;;;;;;;5.50;4.90;;;;;;;2.51;62.74;100382.48;105879;1254;70663;-70
2023/02/27 11:37:33;;;;;;;6.80;5.40;;;;;;;2.49;62.62;100378.59;106048;1255;70269;-73
2023/02/27 11:40:08;;;;;;;6.30;4.80;;;;;;;2.37;62.05;100378.14;106261;1255;71717;-73
2023/02/27 11:42:48;;;;;;;8.00;6.00;;;;;;;2.18;62.33;100375.89;106123;1257;60585;-74
2023/02/27 11:45:25;;;;;;;8.10;4.90;;;;;;;2.03;62.51;100376.46;106345;1255;61595;-74
2023/02/27 11:48:41;;;;;;;6.00;4.40;;;;;;;1.95;62.96;100374.86;106243;1258;72195;-73
2023/02/27 11:51:09;;;;;;;6.60;3.90;;;;;;;1.90;63.26;100381.83;105871;1259;68748;-75
2023/02/27 11:53:57;;;;;;;6.50;4.90;;;;;;;1.87;63.33;100386.75;106568;1255;72271;-75